createdAt,value
2023-01-26T00:00:27.177Z,51.38
2023-01-26T00:05:55.332Z,39.58
2023-01-26T00:11:06.728Z,32.53
2023-01-26T00:16:15.787Z,37.60
2023-01-26T00:21:25.518Z,40.33
2023-01-26T00:26:32.241Z,38.30
2023-01-26T00:31:40.981Z,34.72
2023-01-26T00:36:48.767Z,39.25
2023-01-26T00:42:14.395Z,37.55
2023-01-26T00:47:21.517Z,40.00
2023-01-26T00:52:32.057Z,28.87
2023-01-26T00:57:39.591Z,38.50
2023-01-26T01:02:45.963Z,37.08
2023-01-26T01:07:55.665Z,38.80
2023-01-26T01:13:02.319Z,42.03
2023-01-26T01:18:11.827Z,35.78
2023-01-26T01:23:19.952Z,34.58
2023-01-26T01:28:26.679Z,34.30
2023-01-26T01:33:33.462Z,40.35
2023-01-26T01:38:42.016Z,39.83
2023-01-26T01:49:00.142Z,41.78
2023-01-26T01:54:13.912Z,39.60
2023-01-26T01:59:22.817Z,39.03
2023-01-26T02:09:58.590Z,44.58
2023-01-26T02:15:05.777Z,46.92
2023-01-26T02:20:22.596Z,43.15
2023-01-26T02:25:43.733Z,44.78
2023-01-26T02:30:52.569Z,44.53
2023-01-26T02:35:59.037Z,42.10
2023-01-26T02:41:09.787Z,45.85
2023-01-26T02:46:18.319Z,52.53
2023-01-26T02:51:25.086Z,51.15
2023-01-26T02:56:32.147Z,45.38
2023-01-26T03:01:40.604Z,53.42
2023-01-26T03:06:47.576Z,46.85
2023-01-26T03:11:54.266Z,42.50
2023-01-26T03:17:02.670Z,48.00
2023-01-26T03:27:46.593Z,49.47
2023-01-26T03:32:57.188Z,41.83
2023-01-26T03:38:04.249Z,44.50
2023-01-26T03:43:41.135Z,47.22
2023-01-26T03:49:07.932Z,46.42
2023-01-26T03:54:33.715Z,47.20
2023-01-26T03:59:40.362Z,48.47
2023-01-26T04:05:09.598Z,45.17
2023-01-26T04:10:18.446Z,41.88
2023-01-26T04:15:43.301Z,43.03
2023-01-26T04:21:08.952Z,47.13
2023-01-26T04:26:17.220Z,50.33
2023-01-26T04:31:23.793Z,45.55
2023-01-26T04:36:34.477Z,48.22
2023-01-26T04:41:42.505Z,53.78
2023-01-26T04:46:52.187Z,55.38
2023-01-26T04:52:00.317Z,46.88
2023-01-26T04:57:10.535Z,50.42
2023-01-26T05:02:20.540Z,61.60
2023-01-26T05:07:28.492Z,52.85
2023-01-26T05:12:38.668Z,48.35
2023-01-26T05:18:05.913Z,47.92
2023-01-26T05:23:32.305Z,52.70
2023-01-26T05:28:44.409Z,48.17
2023-01-26T05:33:51.024Z,47.35
2023-01-26T05:39:03.896Z,53.65
2023-01-26T05:44:11.113Z,59.77
2023-01-26T05:49:23.769Z,52.83
2023-01-26T05:54:33.166Z,49.30
2023-01-26T05:59:40.419Z,51.30
2023-01-26T06:04:48.212Z,52.83
2023-01-26T06:09:57.037Z,58.45
2023-01-26T06:15:26.931Z,59.13
2023-01-26T06:20:35.361Z,57.22
2023-01-26T06:25:46.472Z,63.67
2023-01-26T06:36:04.469Z,49.47
2023-01-26T06:41:13.645Z,60.10
2023-01-26T06:46:23.074Z,54.47
2023-01-26T06:51:58.715Z,58.28
2023-01-26T07:03:05.725Z,48.40
2023-01-26T07:08:12.220Z,49.20
2023-01-26T07:13:20.254Z,52.63
2023-01-26T07:18:26.768Z,54.40
2023-01-26T07:23:35.021Z,53.47
2023-01-26T07:28:43.227Z,49.75
2023-01-26T07:33:50.721Z,45.20
2023-01-26T07:38:57.225Z,59.50
2023-01-26T07:44:08.632Z,54.30
2023-01-26T07:49:18.219Z,53.95
2023-01-26T07:54:26.566Z,61.67
2023-01-26T07:59:34.551Z,58.63
2023-01-26T08:04:40.836Z,63.97
2023-01-26T08:09:47.460Z,51.55
2023-01-26T08:14:56.423Z,58.70
2023-01-26T08:20:02.929Z,59.15
2023-01-26T08:25:11.351Z,73.55
2023-01-26T08:30:20.209Z,63.28
2023-01-26T08:35:26.691Z,52.75
2023-01-26T08:40:32.979Z,55.65
2023-01-26T08:45:42.114Z,47.45
2023-01-26T08:50:50.085Z,44.33
2023-01-26T08:55:56.752Z,44.13
2023-01-26T09:01:07.470Z,43.97
2023-01-26T09:06:16.262Z,45.95
2023-01-26T09:11:22.804Z,39.03
2023-01-26T09:16:31.078Z,40.45
2023-01-26T09:21:38.020Z,39.65
2023-01-26T09:26:44.763Z,40.83
2023-01-26T09:31:52.891Z,40.25
2023-01-26T09:36:59.496Z,43.73
2023-01-26T09:42:28.137Z,42.90
2023-01-26T09:47:52.084Z,46.33
2023-01-26T09:53:04.204Z,39.72
2023-01-26T09:58:21.757Z,43.78
2023-01-26T10:03:41.257Z,48.10
2023-01-26T10:08:47.742Z,39.40
2023-01-26T10:14:00.163Z,40.33
2023-01-26T10:19:16.112Z,41.45
2023-01-26T10:24:25.616Z,43.45
2023-01-26T10:29:32.684Z,39.92
2023-01-26T10:34:42.718Z,38.60
2023-01-26T10:40:01.298Z,38.08
2023-01-26T10:45:27.607Z,42.88
2023-01-26T10:50:36.004Z,37.83
2023-01-26T10:55:43.721Z,47.35
2023-01-26T11:00:58.434Z,39.92
2023-01-26T11:06:16.335Z,41.28
2023-01-26T11:11:29.260Z,34.28
2023-01-26T11:16:36.224Z,43.90
2023-01-26T11:21:50.588Z,41.33
2023-01-26T11:27:38.800Z,38.67
2023-01-26T11:32:57.490Z,38.43
2023-01-26T11:38:18.233Z,43.50
2023-01-26T11:43:50.458Z,43.05
2023-01-26T11:49:14.906Z,39.72
2023-01-26T11:54:41.071Z,41.47
2023-01-26T11:59:52.933Z,35.13
2023-01-26T12:05:03.569Z,37.80
2023-01-26T12:10:16.628Z,37.47
2023-01-26T12:15:30.145Z,38.78
2023-01-26T12:20:42.362Z,37.67
2023-01-26T12:25:56.611Z,41.15
2023-01-26T12:31:14.951Z,38.38
2023-01-26T12:36:37.678Z,33.58
2023-01-26T12:42:13.928Z,36.28
2023-01-26T12:47:26.054Z,38.22
2023-01-26T12:52:40.693Z,29.83
2023-01-26T12:57:56.482Z,33.60
2023-01-26T13:03:09.700Z,27.08
2023-01-26T13:08:54.208Z,29.60
2023-01-26T13:14:02.546Z,30.52
2023-01-26T13:19:38.024Z,37.35
2023-01-26T13:24:47.368Z,36.00
2023-01-26T13:29:59.999Z,32.38
2023-01-26T13:35:12.272Z,29.92
2023-01-26T13:40:24.726Z,29.08
2023-01-26T13:45:41.325Z,34.97
2023-01-26T13:50:53.153Z,33.05
2023-01-26T13:56:02.623Z,30.05
2023-01-26T14:01:17.310Z,32.75
2023-01-26T14:06:24.925Z,33.95
2023-01-26T14:11:34.985Z,33.35
2023-01-26T14:16:43.551Z,31.42
2023-01-26T14:21:53.859Z,29.50
2023-01-26T14:27:01.065Z,32.75
2023-01-26T14:32:18.153Z,33.47
2023-01-26T14:37:27.343Z,28.10
2023-01-26T14:47:43.092Z,30.08
2023-01-26T14:52:49.556Z,29.85
2023-01-26T14:57:56.542Z,32.42
2023-01-26T15:03:14.547Z,24.07
2023-01-26T15:08:24.633Z,32.00
2023-01-26T15:13:34.023Z,26.05
2023-01-26T15:18:42.023Z,28.85
2023-01-26T15:23:54.359Z,28.98
2023-01-26T15:29:03.890Z,37.63
2023-01-26T15:34:36.634Z,41.78
2023-01-26T15:39:43.922Z,44.40
2023-01-26T15:44:50.771Z,42.92
2023-01-26T15:49:58.879Z,39.47
2023-01-26T15:55:23.215Z,45.58
2023-01-26T16:00:29.755Z,39.42
2023-01-26T16:05:37.977Z,34.40
2023-01-26T16:10:44.824Z,44.83
2023-01-26T16:15:53.148Z,48.13
2023-01-26T16:21:01.487Z,45.33
2023-01-26T16:26:10.919Z,43.92
2023-01-26T16:31:20.989Z,47.80
2023-01-26T16:36:29.951Z,37.28
2023-01-26T16:41:37.064Z,31.42
2023-01-26T16:46:44.950Z,39.55
2023-01-26T16:51:53.428Z,45.70
2023-01-26T16:57:01.038Z,44.13
2023-01-26T17:02:21.215Z,29.05
2023-01-26T17:07:29.809Z,27.02
2023-01-26T17:12:37.479Z,25.50
2023-01-26T17:17:45.984Z,23.48
2023-01-26T17:22:54.739Z,26.48
2023-01-26T17:33:09.362Z,28.60
2023-01-26T17:38:17.840Z,28.40
2023-01-26T17:43:25.403Z,30.92
2023-01-26T17:48:32.912Z,31.70
2023-01-26T17:53:44.439Z,33.05
2023-01-26T17:58:56.222Z,29.63
2023-01-26T18:04:05.238Z,29.63
2023-01-26T18:09:14.653Z,28.55
2023-01-26T18:14:22.387Z,28.90
2023-01-26T18:19:31.517Z,28.97
2023-01-26T18:24:43.927Z,28.10
2023-01-26T18:29:53.383Z,26.95
2023-01-26T18:35:02.043Z,28.73
2023-01-26T18:40:13.866Z,37.20
2023-01-26T18:45:21.091Z,33.10
2023-01-26T18:50:28.323Z,34.63
2023-01-26T18:55:37.033Z,38.00
2023-01-26T19:00:45.548Z,29.90
2023-01-26T19:05:57.804Z,37.20
2023-01-26T19:11:15.330Z,33.15
2023-01-26T19:16:24.921Z,37.42
2023-01-26T19:21:35.378Z,41.15
2023-01-26T19:26:47.365Z,39.40
2023-01-26T19:31:58.485Z,36.72
2023-01-26T19:37:08.745Z,35.45
2023-01-26T19:42:20.303Z,39.05
2023-01-26T19:47:31.456Z,37.47
2023-01-26T19:52:40.618Z,33.17
2023-01-26T19:57:51.734Z,32.97
2023-01-26T20:03:01.308Z,41.67
2023-01-26T20:08:10.135Z,36.42
2023-01-26T20:13:20.316Z,41.77
2023-01-26T20:18:30.133Z,48.08
2023-01-26T20:23:53.604Z,55.55
2023-01-26T20:29:04.229Z,71.18
2023-01-26T20:34:14.582Z,66.05
2023-01-26T20:39:25.990Z,67.78
2023-01-26T20:44:37.198Z,44.67
2023-01-26T20:49:45.560Z,42.47
2023-01-26T20:54:54.831Z,43.17
2023-01-26T21:00:04.798Z,42.45
2023-01-26T21:05:13.950Z,40.13
2023-01-26T21:10:21.371Z,43.08
2023-01-26T21:15:30.738Z,41.70
2023-01-26T21:20:37.651Z,37.65
2023-01-26T21:25:44.912Z,34.13
2023-01-26T21:31:02.836Z,35.17
2023-01-26T21:36:13.698Z,45.22
2023-01-26T21:41:43.039Z,64.90
2023-01-26T21:46:56.103Z,58.53
2023-01-26T21:52:21.813Z,44.00
2023-01-26T21:57:45.897Z,37.50
2023-01-26T22:02:54.884Z,33.78
2023-01-26T22:13:09.133Z,30.05
2023-01-26T22:18:17.531Z,32.95
2023-01-26T22:23:24.800Z,27.55
2023-01-26T22:28:33.966Z,32.92
2023-01-26T22:33:42.302Z,37.53
2023-01-26T22:38:49.513Z,48.35
2023-01-26T22:43:58.873Z,40.92
2023-01-26T22:49:07.179Z,34.20
2023-01-26T22:54:13.631Z,39.77
2023-01-26T22:59:20.549Z,34.80
2023-01-26T23:04:30.137Z,38.28
2023-01-26T23:09:37.988Z,34.95
2023-01-26T23:14:44.850Z,34.42
2023-01-26T23:19:54.054Z,36.20
2023-01-26T23:25:18.053Z,31.52
2023-01-26T23:30:25.034Z,30.98
2023-01-26T23:35:33.139Z,33.30
2023-01-26T23:40:40.994Z,30.57
2023-01-26T23:45:48.557Z,34.72
2023-01-26T23:51:00.361Z,32.88
2023-01-26T23:56:11.672Z,34.47
